createdAt,value
2023-05-05T00:00:10.965Z,6.70
2023-05-05T00:02:37.717Z,6.75
2023-05-05T00:05:04.836Z,6.40
2023-05-05T00:07:31.368Z,6.97
2023-05-05T00:09:57.964Z,7.15
2023-05-05T00:12:24.544Z,6.28
2023-05-05T00:14:51.245Z,5.90
2023-05-05T00:17:17.819Z,6.72
2023-05-05T00:19:44.405Z,6.40
2023-05-05T00:22:11.648Z,6.07
2023-05-05T00:24:38.470Z,6.40
2023-05-05T00:27:05.024Z,7.95
2023-05-05T00:29:31.632Z,6.75
2023-05-05T00:31:58.305Z,7.18
2023-05-05T00:34:24.892Z,6.13
2023-05-05T00:36:51.446Z,6.97
2023-05-05T00:39:18.073Z,7.43
2023-05-05T00:41:44.701Z,7.47
2023-05-05T00:44:11.514Z,6.85
2023-05-05T00:46:39.054Z,7.18
2023-05-05T00:49:06.115Z,6.95
2023-05-05T00:51:32.869Z,7.97
2023-05-05T00:53:59.654Z,7.13
2023-05-05T00:56:27.310Z,7.57
2023-05-05T00:58:54.388Z,7.40
2023-05-05T01:01:21.087Z,8.88
2023-05-05T01:03:47.795Z,7.72
2023-05-05T01:06:32.657Z,7.35
2023-05-05T01:09:14.587Z,7.68
2023-05-05T01:12:07.877Z,8.38
2023-05-05T01:14:40.907Z,6.55
2023-05-05T01:17:19.334Z,6.45
2023-05-05T01:20:21.536Z,6.72
2023-05-05T01:22:54.867Z,6.90
2023-05-05T01:25:53.381Z,7.57
2023-05-05T01:28:51.845Z,6.18
2023-05-05T01:31:57.038Z,6.90
2023-05-05T01:34:28.757Z,7.80
2023-05-05T01:37:05.530Z,7.10
2023-05-05T01:39:34.828Z,7.20
2023-05-05T01:42:06.657Z,7.05
2023-05-05T01:44:36.205Z,7.93
2023-05-05T01:47:04.396Z,8.02
2023-05-05T01:49:32.821Z,8.20
2023-05-05T01:52:00.688Z,7.43
2023-05-05T01:54:28.789Z,7.35
2023-05-05T01:56:57.179Z,6.63
2023-05-05T01:59:25.384Z,6.72
2023-05-05T02:01:52.181Z,7.13
2023-05-05T02:04:22.552Z,6.70
2023-05-05T02:06:52.932Z,7.28
2023-05-05T02:09:20.516Z,7.35
2023-05-05T02:11:47.245Z,6.45
2023-05-05T02:14:15.334Z,6.32
2023-05-05T02:16:43.012Z,5.63
2023-05-05T02:19:10.224Z,6.28
2023-05-05T02:21:37.380Z,6.45
2023-05-05T02:24:04.374Z,5.97
2023-05-05T02:26:34.798Z,5.75
2023-05-05T02:29:03.828Z,5.88
2023-05-05T02:31:34.224Z,6.22
2023-05-05T02:34:03.366Z,5.78
2023-05-05T02:36:33.988Z,6.60
2023-05-05T02:39:03.435Z,6.15
2023-05-05T02:41:31.363Z,6.78
2023-05-05T02:44:00.172Z,6.40
2023-05-05T02:46:28.049Z,6.55
2023-05-05T02:48:54.883Z,6.43
2023-05-05T02:51:21.464Z,6.35
2023-05-05T02:53:48.146Z,6.82
2023-05-05T02:56:47.140Z,6.45
2023-05-05T02:59:31.958Z,6.35
2023-05-05T03:02:24.131Z,7.07
2023-05-05T03:04:58.306Z,6.35
2023-05-05T03:07:33.907Z,6.57
2023-05-05T03:10:10.138Z,7.47
2023-05-05T03:12:53.366Z,7.25
2023-05-05T03:15:24.963Z,6.53
2023-05-05T03:17:53.774Z,7.28
2023-05-05T03:20:21.832Z,6.88
2023-05-05T03:22:48.861Z,6.53
2023-05-05T03:25:15.547Z,6.82
2023-05-05T03:27:42.353Z,6.07
2023-05-05T03:30:10.268Z,7.10
2023-05-05T03:32:37.544Z,6.07
2023-05-05T03:35:04.491Z,6.03
2023-05-05T03:37:31.362Z,5.53
2023-05-05T03:39:57.982Z,5.82
2023-05-05T03:42:24.633Z,6.28
2023-05-05T03:44:53.793Z,6.03
2023-05-05T03:47:20.516Z,6.53
2023-05-05T03:49:47.114Z,6.10
2023-05-05T03:52:15.074Z,5.72
2023-05-05T03:54:42.967Z,5.65
2023-05-05T03:57:09.634Z,5.35
2023-05-05T03:59:36.272Z,5.18
2023-05-05T04:02:02.883Z,5.63
2023-05-05T04:04:29.467Z,5.32
2023-05-05T04:06:56.172Z,5.40
2023-05-05T04:09:22.692Z,5.00
2023-05-05T04:11:49.310Z,5.60
2023-05-05T04:14:16.397Z,5.38
2023-05-05T04:16:42.930Z,5.65
2023-05-05T04:19:09.668Z,5.20
2023-05-05T04:21:36.404Z,5.13
2023-05-05T04:24:03.264Z,6.25
2023-05-05T04:26:30.192Z,6.07
2023-05-05T04:28:56.748Z,5.72
2023-05-05T04:31:23.533Z,5.40
2023-05-05T04:33:50.179Z,4.70
2023-05-05T04:36:19.002Z,5.18
2023-05-05T04:38:45.822Z,6.30
2023-05-05T04:41:12.662Z,5.20
2023-05-05T04:43:39.174Z,6.22
2023-05-05T04:46:05.797Z,5.72
2023-05-05T04:48:32.503Z,5.97
2023-05-05T04:51:04.487Z,5.55
2023-05-05T04:53:31.125Z,4.88
2023-05-05T04:55:59.101Z,5.10
2023-05-05T04:58:25.679Z,5.57
2023-05-05T05:00:52.283Z,6.20
2023-05-05T05:03:18.983Z,5.80
2023-05-05T05:05:45.592Z,5.68
2023-05-05T05:08:12.113Z,6.90
2023-05-05T05:10:38.654Z,7.15
2023-05-05T05:13:05.350Z,6.28
2023-05-05T05:15:32.036Z,6.18
2023-05-05T05:17:58.579Z,7.00
2023-05-05T05:20:25.272Z,6.88
2023-05-05T05:22:51.814Z,7.63
2023-05-05T05:25:18.390Z,8.27
2023-05-05T05:27:46.803Z,6.80
2023-05-05T05:30:16.799Z,8.05
2023-05-05T05:32:43.305Z,8.43
2023-05-05T05:35:09.852Z,9.38
2023-05-05T05:37:36.688Z,9.48
2023-05-05T05:40:05.068Z,9.23
2023-05-05T05:42:31.655Z,9.88
2023-05-05T05:45:01.308Z,9.73
2023-05-05T05:47:28.059Z,9.10
2023-05-05T05:49:54.680Z,8.80
2023-05-05T05:52:21.179Z,9.02
2023-05-05T05:54:47.805Z,9.48
2023-05-05T05:57:14.331Z,8.43
2023-05-05T05:59:40.973Z,9.57
2023-05-05T06:02:07.736Z,8.63
2023-05-05T06:04:34.461Z,8.98
2023-05-05T06:07:01.173Z,9.43
2023-05-05T06:09:27.747Z,8.68
2023-05-05T06:11:54.395Z,9.55
2023-05-05T06:14:20.974Z,8.70
2023-05-05T06:16:47.583Z,9.07
2023-05-05T06:19:14.109Z,8.13
2023-05-05T06:21:40.751Z,9.15
2023-05-05T06:24:07.326Z,9.05
2023-05-05T06:26:33.854Z,9.27
2023-05-05T06:29:00.380Z,8.32
2023-05-05T06:31:26.954Z,8.02
2023-05-05T06:33:53.536Z,7.65
2023-05-05T06:36:20.134Z,7.30
2023-05-05T06:38:46.687Z,7.32
2023-05-05T06:41:13.256Z,6.47
2023-05-05T06:43:39.853Z,7.00
2023-05-05T06:46:06.386Z,5.90
2023-05-05T06:48:32.968Z,6.13
2023-05-05T06:50:59.505Z,5.75
2023-05-05T06:53:26.114Z,5.05
2023-05-05T06:55:52.656Z,5.90
2023-05-05T06:58:19.200Z,5.40
2023-05-05T07:00:45.907Z,5.55
2023-05-05T07:03:12.915Z,5.30
2023-05-05T07:05:39.527Z,5.55
2023-05-05T07:08:06.541Z,5.90
2023-05-05T07:10:33.091Z,4.72
2023-05-05T07:12:59.829Z,4.95
2023-05-05T07:15:28.553Z,4.60
2023-05-05T07:17:56.917Z,4.40
2023-05-05T07:20:24.286Z,4.22
2023-05-05T07:22:51.034Z,5.63
2023-05-05T07:25:17.645Z,4.07
2023-05-05T07:27:44.537Z,4.25
2023-05-05T07:30:15.300Z,3.92
2023-05-05T07:32:44.052Z,3.35
2023-05-05T07:35:10.753Z,3.10
2023-05-05T07:37:37.329Z,3.55
2023-05-05T07:40:04.303Z,3.30
2023-05-05T07:42:31.086Z,3.05
2023-05-05T07:44:57.652Z,3.15
2023-05-05T07:47:24.286Z,3.05
2023-05-05T07:49:50.953Z,2.90
2023-05-05T07:52:17.615Z,3.17
2023-05-05T07:54:45.174Z,3.33
2023-05-05T07:57:11.720Z,2.97
2023-05-05T07:59:40.955Z,2.83
2023-05-05T08:02:07.526Z,3.22
2023-05-05T08:04:34.120Z,3.22
2023-05-05T08:07:00.764Z,3.33
2023-05-05T08:09:27.382Z,3.30
2023-05-05T08:11:54.066Z,3.75
2023-05-05T08:14:20.755Z,3.72
2023-05-05T08:16:47.327Z,3.40
2023-05-05T08:19:27.536Z,3.70
2023-05-05T08:21:55.946Z,3.28
2023-05-05T08:24:22.493Z,3.25
2023-05-05T08:26:49.202Z,3.30
2023-05-05T08:29:15.790Z,3.25
2023-05-05T08:31:42.395Z,3.00
2023-05-05T08:34:08.964Z,3.75
2023-05-05T08:36:35.835Z,3.38
2023-05-05T08:39:02.628Z,3.50
2023-05-05T08:41:29.172Z,3.85
2023-05-05T08:43:55.938Z,3.13
2023-05-05T08:46:23.734Z,2.53
2023-05-05T08:48:55.212Z,2.50
2023-05-05T08:51:23.185Z,2.80
2023-05-05T08:54:03.440Z,2.95
2023-05-05T08:56:37.335Z,2.70
2023-05-05T08:59:04.453Z,2.55
2023-05-05T09:01:33.169Z,2.80
2023-05-05T09:03:59.978Z,3.70
2023-05-05T09:06:27.389Z,2.80
2023-05-05T09:08:54.287Z,2.83
2023-05-05T09:11:22.579Z,3.20
2023-05-05T09:13:49.713Z,3.67
2023-05-05T09:16:16.401Z,3.45
2023-05-05T09:18:43.066Z,2.92
2023-05-05T09:21:24.654Z,3.70
2023-05-05T09:24:13.281Z,2.95
2023-05-05T09:26:46.324Z,3.05
2023-05-05T09:29:22.674Z,3.58
2023-05-05T09:32:08.863Z,3.60
2023-05-05T09:34:35.936Z,5.03
2023-05-05T09:37:03.291Z,2.80
2023-05-05T09:39:29.953Z,3.20
2023-05-05T09:41:57.237Z,3.20
2023-05-05T09:44:34.981Z,3.20
2023-05-05T09:47:01.750Z,3.63
2023-05-05T09:49:28.712Z,5.55
2023-05-05T09:51:55.444Z,3.97
2023-05-05T09:54:29.579Z,4.03
2023-05-05T09:56:59.024Z,4.93
2023-05-05T09:59:25.648Z,3.55
2023-05-05T10:01:52.411Z,3.95
2023-05-05T10:04:30.291Z,3.83
2023-05-05T10:06:58.100Z,3.88
2023-05-05T10:09:25.862Z,3.90
2023-05-05T10:11:53.315Z,4.32
2023-05-05T10:14:20.330Z,3.33
2023-05-05T10:16:50.520Z,4.50
2023-05-05T10:19:20.990Z,4.38
2023-05-05T10:24:34.124Z,6.07
2023-05-05T10:27:03.271Z,4.63
2023-05-05T10:29:38.193Z,4.28
2023-05-05T10:32:33.445Z,4.03
2023-05-05T10:35:02.578Z,3.08
2023-05-05T10:37:30.298Z,4.00
2023-05-05T10:39:57.727Z,4.28
2023-05-05T10:42:24.552Z,3.83
2023-05-05T10:44:51.632Z,4.05
2023-05-05T10:47:20.003Z,3.83
2023-05-05T10:50:21.486Z,3.70
2023-05-05T10:53:28.307Z,3.63
2023-05-05T10:56:19.462Z,3.70
2023-05-05T10:58:59.147Z,4.28
2023-05-05T11:01:34.504Z,3.97
2023-05-05T11:04:21.741Z,3.92
2023-05-05T11:07:14.312Z,3.75
2023-05-05T11:10:03.543Z,4.63
2023-05-05T11:12:31.613Z,3.90
2023-05-05T11:15:26.281Z,5.15
2023-05-05T11:17:56.274Z,3.75
2023-05-05T11:20:48.889Z,4.07
2023-05-05T11:23:21.953Z,4.30
2023-05-05T11:25:48.751Z,5.20
2023-05-05T11:28:17.830Z,5.18
2023-05-05T11:30:58.808Z,4.63
2023-05-05T11:33:31.768Z,5.45
2023-05-05T11:36:08.323Z,4.40
2023-05-05T11:39:04.881Z,4.72
2023-05-05T11:41:34.490Z,4.13
2023-05-05T11:44:15.084Z,3.40
2023-05-05T11:46:54.448Z,4.05
2023-05-05T11:49:27.282Z,4.30
2023-05-05T11:52:02.008Z,4.28
2023-05-05T11:54:28.995Z,4.72
2023-05-05T11:57:02.235Z,4.68
2023-05-05T11:59:28.793Z,4.22
2023-05-05T12:01:55.509Z,4.43
2023-05-05T12:04:22.155Z,3.58
2023-05-05T12:06:49.020Z,5.05
2023-05-05T12:09:17.163Z,5.90
2023-05-05T12:11:58.145Z,4.13
2023-05-05T12:14:25.774Z,4.45
2023-05-05T12:16:56.093Z,4.68
2023-05-05T12:19:23.286Z,4.05
2023-05-05T12:21:50.254Z,4.07
2023-05-05T12:24:16.900Z,4.20
2023-05-05T12:26:43.521Z,3.95
2023-05-05T12:29:10.798Z,4.75
2023-05-05T12:31:40.000Z,3.90
2023-05-05T12:34:08.619Z,3.88
2023-05-05T12:36:36.665Z,3.90
2023-05-05T12:39:06.965Z,3.75
2023-05-05T12:41:34.319Z,4.30
2023-05-05T12:44:02.873Z,3.78
2023-05-05T12:46:30.901Z,3.83
2023-05-05T12:49:07.777Z,4.03
2023-05-05T12:51:35.850Z,4.43
2023-05-05T12:54:07.679Z,4.07
2023-05-05T12:56:42.286Z,4.07
2023-05-05T12:59:22.531Z,3.75
2023-05-05T13:01:55.403Z,3.20
2023-05-05T13:04:27.195Z,3.80
2023-05-05T13:07:11.110Z,3.45
2023-05-05T13:09:37.788Z,3.47
2023-05-05T13:12:04.988Z,3.25
2023-05-05T13:14:32.364Z,3.83
2023-05-05T13:16:59.010Z,3.20
2023-05-05T13:19:25.797Z,3.72
2023-05-05T13:21:53.397Z,3.78
2023-05-05T13:24:31.133Z,4.75
2023-05-05T13:27:05.646Z,3.30
2023-05-05T13:29:33.401Z,4.10
2023-05-05T13:32:00.422Z,3.00
2023-05-05T13:34:27.097Z,3.65
2023-05-05T13:36:53.822Z,3.58
2023-05-05T13:39:20.526Z,3.28
2023-05-05T13:41:47.118Z,3.40
2023-05-05T13:44:14.259Z,3.20
2023-05-05T13:46:42.480Z,3.30
2023-05-05T13:49:09.108Z,3.75
2023-05-05T13:51:36.853Z,3.85
2023-05-05T13:54:03.782Z,3.83
2023-05-05T13:56:30.484Z,3.55
2023-05-05T13:58:57.224Z,3.67
2023-05-05T14:01:23.907Z,3.17
2023-05-05T14:03:50.591Z,3.40
2023-05-05T14:06:17.316Z,3.10
2023-05-05T14:08:43.879Z,3.15
2023-05-05T14:11:10.631Z,2.97
2023-05-05T14:13:37.201Z,3.08
2023-05-05T14:16:03.897Z,3.63
2023-05-05T14:18:30.479Z,3.63
2023-05-05T14:20:57.069Z,3.40
2023-05-05T14:23:23.675Z,3.88
2023-05-05T14:25:50.374Z,3.17
2023-05-05T14:28:16.983Z,3.40
2023-05-05T14:30:43.568Z,5.00
2023-05-05T14:33:10.197Z,5.45
2023-05-05T14:35:36.838Z,3.47
2023-05-05T14:38:03.445Z,4.75
2023-05-05T14:40:31.079Z,3.92
2023-05-05T14:42:57.712Z,2.72
2023-05-05T14:45:24.452Z,2.90
2023-05-05T14:47:51.027Z,3.90
2023-05-05T14:50:17.595Z,3.65
2023-05-05T14:52:44.449Z,3.25
2023-05-05T14:55:11.770Z,3.40
2023-05-05T14:57:38.729Z,9.35
2023-05-05T15:00:06.982Z,7.70
2023-05-05T15:02:33.882Z,4.50
2023-05-05T15:05:00.539Z,3.60
2023-05-05T15:07:28.605Z,3.55
2023-05-05T15:09:58.326Z,3.47
2023-05-05T15:12:25.896Z,3.40
2023-05-05T15:14:52.623Z,3.20
2023-05-05T15:17:19.267Z,3.92
2023-05-05T15:19:45.883Z,3.00
2023-05-05T15:22:12.472Z,3.70
2023-05-05T15:24:39.070Z,3.35
2023-05-05T15:27:05.711Z,3.85
2023-05-05T15:29:32.459Z,3.90
2023-05-05T15:31:59.164Z,3.40
2023-05-05T15:34:26.106Z,3.67
2023-05-05T15:36:52.681Z,2.97
2023-05-05T15:39:19.361Z,2.75
2023-05-05T15:41:46.035Z,2.42
2023-05-05T15:44:12.641Z,2.40
2023-05-05T15:46:39.622Z,2.38
2023-05-05T15:49:06.344Z,3.03
2023-05-05T15:51:32.950Z,3.55
2023-05-05T15:54:00.348Z,2.17
2023-05-05T15:56:27.557Z,2.55
2023-05-05T15:58:54.442Z,2.85
2023-05-05T16:01:21.451Z,2.00
2023-05-05T16:03:48.147Z,2.25
2023-05-05T16:06:14.698Z,2.70
2023-05-05T16:08:41.268Z,2.35
2023-05-05T16:11:07.915Z,2.05
2023-05-05T16:13:34.690Z,2.28
2023-05-05T16:16:01.443Z,2.35
2023-05-05T16:18:28.100Z,2.13
2023-05-05T16:20:54.656Z,1.83
2023-05-05T16:23:21.304Z,1.75
2023-05-05T16:25:47.913Z,2.30
2023-05-05T16:28:14.456Z,2.20
2023-05-05T16:30:42.807Z,2.30
2023-05-05T16:33:09.843Z,1.95
2023-05-05T16:35:36.581Z,1.85
2023-05-05T16:38:03.442Z,2.33
2023-05-05T16:40:30.125Z,1.92
2023-05-05T16:42:57.265Z,2.25
2023-05-05T16:45:24.292Z,2.10
2023-05-05T16:47:51.074Z,1.90
2023-05-05T16:50:17.844Z,2.13
2023-05-05T16:52:44.453Z,2.10
2023-05-05T16:55:11.317Z,1.65
2023-05-05T16:57:38.280Z,2.05
2023-05-05T17:00:06.807Z,1.83
2023-05-05T17:02:33.650Z,2.08
2023-05-05T17:05:00.564Z,2.20
2023-05-05T17:07:27.394Z,2.17
2023-05-05T17:09:53.934Z,2.25
2023-05-05T17:12:20.655Z,1.95
2023-05-05T17:14:47.220Z,1.90
2023-05-05T17:17:14.032Z,2.15
2023-05-05T17:19:40.626Z,2.20
2023-05-05T17:22:07.136Z,2.03
2023-05-05T17:24:33.729Z,2.15
2023-05-05T17:27:00.313Z,1.95
2023-05-05T17:29:26.899Z,2.80
2023-05-05T17:31:54.063Z,2.50
2023-05-05T17:34:20.787Z,2.50
2023-05-05T17:36:47.365Z,2.42
2023-05-05T17:39:13.947Z,2.33
2023-05-05T17:41:41.947Z,4.55
2023-05-05T17:44:08.679Z,3.17
2023-05-05T17:46:36.047Z,2.50
2023-05-05T17:49:02.886Z,2.60
2023-05-05T17:51:29.613Z,2.10
2023-05-05T17:53:56.247Z,2.17
2023-05-05T17:56:22.999Z,1.88
2023-05-05T17:58:49.697Z,2.08
2023-05-05T18:01:21.239Z,2.17
2023-05-05T18:03:48.530Z,2.45
2023-05-05T18:06:15.612Z,2.53
2023-05-05T18:08:42.697Z,2.40
2023-05-05T18:11:09.338Z,2.90
2023-05-05T18:13:35.996Z,2.30
2023-05-05T18:16:03.074Z,2.55
2023-05-05T18:18:29.908Z,2.70
2023-05-05T18:20:56.525Z,2.63
2023-05-05T18:23:23.106Z,2.30
2023-05-05T18:25:49.904Z,2.15
2023-05-05T18:28:16.865Z,2.25
2023-05-05T18:30:43.463Z,8.30
2023-05-05T18:33:10.088Z,4.05
2023-05-05T18:35:37.054Z,3.78
2023-05-05T18:38:03.882Z,3.08
2023-05-05T18:40:31.537Z,3.95
2023-05-05T18:42:58.339Z,2.80
2023-05-05T18:45:25.043Z,2.25
2023-05-05T18:47:51.748Z,3.28
2023-05-05T18:50:18.510Z,3.10
2023-05-05T18:52:45.112Z,3.53
2023-05-05T18:55:11.988Z,3.13
2023-05-05T18:57:38.913Z,2.75
2023-05-05T19:00:06.241Z,2.70
2023-05-05T19:02:33.009Z,3.17
2023-05-05T19:04:59.919Z,3.33
2023-05-05T19:07:34.977Z,3.28
2023-05-05T19:10:04.240Z,2.75
2023-05-05T19:12:30.886Z,2.78
2023-05-05T19:14:57.578Z,2.67
2023-05-05T19:17:24.255Z,2.90
2023-05-05T19:19:51.692Z,2.65
2023-05-05T19:22:18.428Z,3.58
2023-05-05T19:24:45.208Z,4.07
2023-05-05T19:27:16.421Z,3.00
2023-05-05T19:29:43.863Z,4.72
2023-05-05T19:32:10.767Z,3.72
2023-05-05T19:34:37.532Z,5.15
2023-05-05T19:37:04.281Z,4.45
2023-05-05T19:39:31.151Z,3.38
2023-05-05T19:41:57.980Z,3.47
2023-05-05T19:44:24.570Z,5.07
2023-05-05T19:46:52.768Z,4.45
2023-05-05T19:49:19.640Z,3.95
2023-05-05T19:51:49.544Z,4.80
2023-05-05T19:54:16.507Z,4.45
2023-05-05T19:56:43.363Z,4.10
2023-05-05T19:59:10.818Z,4.05
2023-05-05T20:01:41.165Z,3.95
2023-05-05T20:04:08.103Z,4.32
2023-05-05T20:06:36.400Z,4.20
2023-05-05T20:09:04.138Z,3.88
2023-05-05T20:11:31.288Z,4.93
2023-05-05T20:13:58.483Z,4.07
2023-05-05T20:16:30.528Z,4.15
2023-05-05T20:19:03.609Z,4.53
2023-05-05T20:21:31.500Z,4.15
2023-05-05T20:23:59.786Z,3.88
2023-05-05T20:26:26.841Z,4.47
2023-05-05T20:28:53.393Z,4.30
2023-05-05T20:31:20.089Z,4.35
2023-05-05T20:33:46.960Z,4.55
2023-05-05T20:36:13.592Z,4.05
2023-05-05T20:38:40.288Z,4.60
2023-05-05T20:41:07.083Z,6.03
2023-05-05T20:43:33.858Z,4.53
2023-05-05T20:46:00.879Z,6.60
2023-05-05T20:48:27.621Z,5.88
2023-05-05T20:50:54.398Z,4.75
2023-05-05T20:53:23.325Z,4.85
2023-05-05T20:55:50.242Z,8.50
2023-05-05T20:58:16.933Z,8.95
2023-05-05T21:00:44.634Z,6.50
2023-05-05T21:03:11.982Z,9.88
2023-05-05T21:05:39.878Z,5.72
2023-05-05T21:08:07.135Z,5.18
2023-05-05T21:10:33.937Z,5.20
2023-05-05T21:13:02.197Z,5.07
2023-05-05T21:15:29.066Z,6.10
2023-05-05T21:17:57.085Z,6.22
2023-05-05T21:20:24.050Z,6.70
2023-05-05T21:22:50.708Z,5.82
2023-05-05T21:25:20.983Z,5.53
2023-05-05T21:27:48.508Z,5.90
2023-05-05T21:30:15.695Z,5.63
2023-05-05T21:32:42.673Z,5.60
2023-05-05T21:35:09.512Z,5.72
2023-05-05T21:37:39.578Z,5.22
2023-05-05T21:40:11.143Z,6.30
2023-05-05T21:42:38.022Z,6.80
2023-05-05T21:45:05.045Z,7.30
2023-05-05T21:47:31.919Z,6.90
2023-05-05T21:49:58.947Z,6.93
2023-05-05T21:52:25.571Z,7.15
2023-05-05T21:54:52.123Z,7.05
2023-05-05T21:57:18.936Z,6.78
2023-05-05T21:59:45.720Z,7.10
2023-05-05T22:02:12.344Z,7.80
2023-05-05T22:04:39.042Z,6.57
2023-05-05T22:07:05.763Z,6.63
2023-05-05T22:09:32.305Z,6.35
2023-05-05T22:11:58.867Z,6.90
2023-05-05T22:14:25.771Z,6.57
2023-05-05T22:16:52.392Z,6.50
2023-05-05T22:19:19.103Z,6.78
2023-05-05T22:21:45.674Z,6.80
2023-05-05T22:24:12.238Z,7.10
2023-05-05T22:26:42.878Z,5.95
2023-05-05T22:29:10.524Z,6.10
2023-05-05T22:31:37.855Z,5.93
2023-05-05T22:34:04.579Z,7.43
2023-05-05T22:36:31.459Z,7.88
2023-05-05T22:38:58.097Z,6.47
2023-05-05T22:41:25.050Z,5.88
2023-05-05T22:43:51.797Z,6.00
2023-05-05T22:46:18.451Z,6.60
2023-05-05T22:48:45.237Z,6.88
2023-05-05T22:51:11.825Z,6.32
2023-05-05T22:53:38.689Z,5.75
2023-05-05T22:56:06.238Z,6.82
2023-05-05T22:58:32.889Z,6.35
2023-05-05T23:00:59.676Z,6.68
2023-05-05T23:03:26.809Z,5.63
2023-05-05T23:05:53.449Z,5.30
2023-05-05T23:08:20.464Z,5.70
2023-05-05T23:10:47.087Z,6.20
2023-05-05T23:13:13.742Z,5.63
2023-05-05T23:15:41.136Z,5.28
2023-05-05T23:18:08.013Z,4.78
2023-05-05T23:20:34.751Z,5.03
2023-05-05T23:23:01.272Z,4.82
2023-05-05T23:25:27.812Z,4.55
2023-05-05T23:27:54.539Z,4.50
2023-05-05T23:30:21.375Z,5.05
2023-05-05T23:32:48.016Z,4.25
2023-05-05T23:35:14.643Z,5.43
2023-05-05T23:37:41.325Z,4.30
2023-05-05T23:40:08.587Z,4.38
2023-05-05T23:42:35.170Z,4.60
2023-05-05T23:45:01.884Z,4.32
2023-05-05T23:47:28.617Z,4.88
2023-05-05T23:49:55.321Z,4.25
2023-05-05T23:52:22.575Z,3.70
2023-05-05T23:54:49.137Z,4.00
2023-05-05T23:57:16.076Z,4.32
2023-05-05T23:59:42.636Z,4.20
